^^
Lisbon, NH - Weather Station Historical Data
Daily Summary for April 14, 2021 Units:  English    Metric   Both
Daily Weekly Monthly Yearly
  High: Low: Average:
Temperature: 69.2 °F 41.6 °F 56 °F
Dew Point: 45.1 °F 33.1 °F 41.4 °F
Humidity: 98% 27.5% 63%
Wind Speed: 9.2mph 0mph 1.4mph
Wind Gust: 24mph - -
Wind- - SSW
Pressure: 30.01 in 29.78 in -
Precipitation: 0.00 in    
 
 
Tabular Data for April 14, 2021
Time Temperature Dew Point Pressure Wind Wind Speed Wind Gust Humidity Rainfall Rate (Hourly) solar
00:04 49.1 °F 45 °F 29.96 in Calm     85.6% 0.00 in 0 W/m2
00:09 48.9 °F 44.9 °F 29.96 in Calm     86% 0.00 in 0 W/m2
00:14 48.7 °F 44.8 °F 29.96 in Calm     86% 0.00 in 0 W/m2
00:19 48.5 °F 44.6 °F 29.96 in Calm     86.2% 0.00 in 0 W/m2
00:24 48.3 °F 44.6 °F 29.96 in Calm     87% 0.00 in 0 W/m2
00:29 47.9 °F 44.2 °F 29.96 in Calm     87% 0.00 in 0 W/m2
00:34 47.6 °F 44 °F 29.96 in Calm     87% 0.00 in 0 W/m2
00:39 47.4 °F 43.8 °F 29.96 in Calm     87% 0.00 in 0 W/m2
00:44 47.2 °F 43.9 °F 29.96 in Calm     88% 0.00 in 0 W/m2
00:49 47.1 °F 43.8 °F 29.96 in Calm     88.1% 0.00 in 0 W/m2
00:54 47 °F 44 °F 29.96 in Calm     89% 0.00 in 0 W/m2
00:59 47 °F 43.9 °F 29.96 in Calm     89% 0.00 in 0 W/m2
01:04 47 °F 43.9 °F 29.96 in Calm     89% 0.00 in 0 W/m2
01:09 47 °F 44.2 °F 29.96 in Calm     90% 0.00 in 0 W/m2
01:14 47 °F 44.2 °F 29.96 in Calm     90% 0.00 in 0 W/m2
01:19 47 °F 44.3 °F 29.96 in Calm     90.2% 0.00 in 0 W/m2
01:24 47 °F 44.5 °F 29.96 in Calm     91% 0.00 in 0 W/m2
01:29 47.1 °F 44.6 °F 29.96 in Calm     91% 0.00 in 0 W/m2
01:34 47.1 °F 44.6 °F 29.96 in Calm     91% 0.00 in 0 W/m2
01:39 47.1 °F 44.6 °F 29.96 in Calm     91% 0.00 in 0 W/m2
01:44 47.1 °F 44.6 °F 29.96 in Calm     91% 0.00 in 0 W/m2
01:49 47.1 °F 44.6 °F 29.96 in Calm     91% 0.00 in 0 W/m2
01:54 47.1 °F 44.6 °F 29.96 in Calm     91% 0.00 in 0 W/m2
01:59 47.1 °F 44.6 °F 29.96 in Calm     91% 0.00 in 0 W/m2
02:04 47.1 °F 44.6 °F 29.96 in Calm     91% 0.00 in 0 W/m2
02:09 47.1 °F 44.6 °F 29.96 in Calm     91% 0.00 in 0 W/m2
02:14 47.1 °F 44.6 °F 29.96 in Calm     91% 0.00 in 0 W/m2
02:19 47.1 °F 44.6 °F 29.96 in Calm     91% 0.00 in 0 W/m2
02:24 47.1 °F 44.6 °F 29.96 in Calm     91% 0.00 in 0 W/m2
02:29 47.1 °F 44.6 °F 29.96 in Calm     91% 0.00 in 0 W/m2
02:34 47.1 °F 44.6 °F 29.96 in Calm     91% 0.00 in 0 W/m2
02:39 47 °F 44.5 °F 29.96 in Calm     91% 0.00 in 0 W/m2
02:44 47 °F 44.5 °F 29.96 in Calm     91% 0.00 in 0 W/m2
02:49 47 °F 44.5 °F 29.96 in Calm     91% 0.00 in 0 W/m2
02:54 46.8 °F 44.3 °F 29.96 in Calm     91% 0.00 in 0 W/m2
02:59 46.8 °F 44.3 °F 29.96 in Calm     91% 0.00 in 0 W/m2
03:04 46.8 °F 44.3 °F 29.96 in Calm     91% 0.00 in 0 W/m2
03:09 46.7 °F 44.2 °F 29.96 in Calm     91% 0.00 in 0 W/m2
03:14 46.7 °F 44.5 °F 29.96 in Calm     91.9% 0.00 in 0 W/m2
03:19 46.5 °F 44.3 °F 29.96 in Calm     92% 0.00 in 0 W/m2
03:29 46.5 °F 44.3 °F 29.96 in Calm     92% 0.00 in 0 W/m2
03:34 46.5 °F 44.4 °F 29.96 in Calm     92.4% 0.00 in 0 W/m2
03:39 46.4 °F 44.5 °F 29.96 in Calm     93% 0.00 in 0 W/m2
03:44 46.4 °F 44.5 °F 29.96 in Calm     93% 0.00 in 0 W/m2
03:49 46.2 °F 44.3 °F 29.96 in Calm     93% 0.00 in 0 W/m2
03:54 46.2 °F 44.3 °F 29.96 in Calm     93% 0.00 in 0 W/m2
04:04 46.1 °F 44.2 °F 29.97 in Calm     93% 0.00 in 0 W/m2
04:09 45.9 °F 44 °F 29.97 in Calm     93% 0.00 in 0 W/m2
04:14 45.8 °F 44.1 °F 29.97 in Calm     93.9% 0.00 in 0 W/m2
04:19 45.8 °F 44.2 °F 29.97 in Calm     94% 0.00 in 0 W/m2
04:24 45.6 °F 44 °F 29.97 in Calm     94% 0.00 in 0 W/m2
04:29 45.6 °F 44 °F 29.97 in Calm     94% 0.00 in 0 W/m2
04:34 45.5 °F 43.9 °F 29.97 in Calm     94% 0.00 in 0 W/m2
04:39 45.5 °F 43.9 °F 29.97 in Calm     94% 0.00 in 0 W/m2
04:44 45.3 °F 43.7 °F 29.98 in Calm     94% 0.00 in 0 W/m2
04:49 45.3 °F 43.7 °F 29.98 in Calm     94% 0.00 in 0 W/m2
04:54 45.1 °F 43.4 °F 29.98 in Calm     94% 0.00 in 0 W/m2
04:59 44.9 °F 43.4 °F 29.98 in Calm     94.5% 0.00 in 0 W/m2
05:04 44.7 °F 43.3 °F 29.98 in Calm     95% 0.00 in 0 W/m2
05:09 44.6 °F 43.2 °F 29.98 in Calm     95% 0.00 in 0 W/m2
05:14 44.5 °F 43.1 °F 29.98 in Calm     95% 0.00 in 0 W/m2
05:19 44.3 °F 42.9 °F 29.98 in Calm     95% 0.00 in 0 W/m2
05:24 44.1 °F 42.8 °F 29.98 in Calm     95% 0.00 in 0 W/m2
05:29 43.9 °F 42.6 °F 29.98 in Calm     95% 0.00 in 0 W/m2
05:34 43.7 °F 42.6 °F 29.98 in Calm     96% 0.00 in 0 W/m2
05:39 43.5 °F 42.5 °F 29.98 in Calm     96% 0.00 in 0 W/m2
05:44 43.4 °F 42.3 °F 29.98 in Calm     96% 0.00 in 0 W/m2
05:49 43.1 °F 42.1 °F 29.98 in Calm     96% 0.00 in 0 W/m2
05:54 42.9 °F 41.9 °F 29.98 in Calm     96% 0.00 in 0 W/m2
05:59 42.7 °F 41.7 °F 29.98 in Calm     96% 0.00 in 7 W/m2
06:04 42.6 °F 41.6 °F 29.98 in Calm     96% 0.00 in 7 W/m2
06:09 42.5 °F 41.4 °F 29.98 in Calm     96% 0.00 in 11 W/m2
06:14 42.2 °F 41.1 °F 29.99 in Calm     96% 0.00 in 12 W/m2
06:19 41.9 °F 40.8 °F 29.99 in Calm     96% 0.00 in 16 W/m2
06:24 41.7 °F 40.8 °F 29.99 in Calm     96.5% 0.00 in 21 W/m2
06:29 41.6 °F 40.8 °F 30.00 in Calm     97% 0.00 in 30 W/m2
06:34 41.6 °F 40.8 °F 30.00 in Calm     97% 0.00 in 70 W/m2
06:39 41.7 °F 41 °F 30.00 in Calm     97.4% 0.00 in 83 W/m2
06:44 42.2 °F 41.7 °F 30.00 in ENE 1.7 mph 3 mph 98% 0.00 in 95 W/m2
06:49 42.5 °F 42 °F 30.00 in ENE 0.1 mph 3 mph 98% 0.00 in 104 W/m2
06:54 42.8 °F 42.3 °F 30.00 in ENE 0.1 mph 2 mph 98% 0.00 in 114 W/m2
06:59 43.3 °F 42.7 °F 30.01 in Calm     97.9% 0.00 in 120 W/m2
07:04 43.4 °F 42.6 °F 30.01 in Calm     97% 0.00 in 151 W/m2
07:09 43.8 °F 43 °F 30.01 in Calm     97% 0.00 in 160 W/m2
07:14 44.6 °F 43.6 °F 30.01 in ENE 0.1 mph 2 mph 96.4% 0.00 in 174 W/m2
07:19 45.2 °F 43.9 °F 30.01 in ENE 1.2 mph 3 mph 94.8% 0.00 in 172 W/m2
07:24 45.7 °F 43.8 °F 30.01 in ENE 1.6 mph 3 mph 93% 0.00 in 188 W/m2
07:29 46.1 °F 43.9 °F 30.01 in ENE 0.3 mph 2 mph 91.9% 0.00 in 218 W/m2
07:34 46.4 °F 43.7 °F 30.01 in ENE 0.3 mph 3 mph 90.3% 0.00 in 238 W/m2
07:39 46.7 °F 43.9 °F 30.01 in ENE 0.8 mph 3 mph 90% 0.00 in 253 W/m2
07:44 47.1 °F 44 °F 30.01 in Calm   1 mph 89% 0.00 in 269 W/m2
07:49 47.5 °F 44.1 °F 30.01 in Calm     87.9% 0.00 in 285 W/m2
07:54 47.7 °F 44 °F 30.01 in Calm     87% 0.00 in 301 W/m2
07:59 48.2 °F 44.4 °F 30.01 in Calm     86.4% 0.00 in 313 W/m2
08:04 48.9 °F 44.7 °F 30.01 in Calm     85.3% 0.00 in 331 W/m2
08:09 49.7 °F 45 °F 30.01 in Calm     83.9% 0.00 in 347 W/m2
08:14 50.5 °F 45.1 °F 30.01 in SE 0.9 mph 7 mph 81.7% 0.00 in 364 W/m2
08:19 51 °F 44.9 °F 30.00 in SSW 0.4 mph 7 mph 79.5% 0.00 in 380 W/m2
08:24 51.4 °F 44.6 °F 30.00 in SW 2.1 mph 5 mph 77.5% 0.00 in 392 W/m2
08:29 51.8 °F 44.4 °F 30.00 in SW 2.8 mph 6 mph 75.7% 0.00 in 413 W/m2
08:34 52.2 °F 44.6 °F 30.00 in SW 1.6 mph 4 mph 75.1% 0.00 in 429 W/m2
08:39 52.6 °F 44.4 °F 30.00 in SW 2.9 mph 7 mph 73.3% 0.00 in 442 W/m2
08:44 52.8 °F 44 °F 30.00 in SW 2.3 mph 7 mph 72% 0.00 in 463 W/m2
08:49 53.3 °F 44.1 °F 30.00 in SW 2.1 mph 6 mph 70.9% 0.00 in 475 W/m2
08:54 53.5 °F 43.9 °F 30.00 in SW 1.1 mph 4 mph 69.8% 0.00 in 487 W/m2
08:59 53.4 °F 44 °F 30.00 in SW 1.8 mph 5 mph 70.2% 0.00 in 507 W/m2
09:04 53.6 °F 44 °F 29.99 in SW 2.2 mph 4 mph 69.8% 0.00 in 521 W/m2
09:09 53.6 °F 43.9 °F 29.99 in SW 2.4 mph 6 mph 69.7% 0.00 in 533 W/m2
09:14 53.6 °F 44.1 °F 29.99 in SW 1.9 mph 6 mph 70% 0.00 in 547 W/m2
09:19 53.9 °F 44.1 °F 29.99 in SW 3.1 mph 6 mph 69.1% 0.00 in 561 W/m2
09:24 54.1 °F 44 °F 29.99 in SW 2.9 mph 7 mph 68.6% 0.00 in 575 W/m2
09:29 54.9 °F 44.3 °F 29.99 in SW 2.7 mph 7 mph 67.3% 0.00 in 591 W/m2
09:34 55.7 °F 44.1 °F 29.99 in SW 1.7 mph 7 mph 64.9% 0.00 in 602 W/m2
09:39 56.5 °F 44.3 °F 29.99 in WSW 2.5 mph 6 mph 63.5% 0.00 in 619 W/m2
09:44 57 °F 44 °F 29.99 in WNW 1.6 mph 6 mph 61.8% 0.00 in 628 W/m2
09:49 57.2 °F 43.8 °F 29.98 in SW 2.7 mph 6 mph 60.8% 0.00 in 644 W/m2
09:54 56.9 °F 43.3 °F 29.98 in SW 3.9 mph 10 mph 60.4% 0.00 in 658 W/m2
09:59 57.1 °F 43.7 °F 29.98 in WSW 1.6 mph 6 mph 60.7% 0.00 in 663 W/m2
10:04 57.7 °F 43.7 °F 29.97 in WSW 1 mph 5 mph 59.3% 0.00 in 679 W/m2
10:09 58.6 °F 43.9 °F 29.97 in WSW 1.2 mph 5 mph 58.1% 0.00 in 691 W/m2
10:14 58.7 °F 43.7 °F 29.97 in SW 1.8 mph 6 mph 57.5% 0.00 in 704 W/m2
10:19 59.1 °F 43.4 °F 29.97 in SW 2.9 mph 7 mph 56% 0.00 in 714 W/m2
10:24 59.4 °F 43.4 °F 29.97 in SW 3.6 mph 7 mph 55.3% 0.00 in 723 W/m2
10:29 59.2 °F 43.4 °F 29.97 in West 1.5 mph 6 mph 55.6% 0.00 in 734 W/m2
10:34 59.5 °F 43 °F 29.96 in WSW 1.9 mph 7 mph 54.5% 0.00 in 741 W/m2
10:39 59.5 °F 42.5 °F 29.96 in WSW 2.6 mph 6 mph 53.2% 0.00 in 753 W/m2
10:44 59.7 °F 43 °F 29.96 in SSW 1.5 mph 6 mph 53.9% 0.00 in 760 W/m2
10:49 60.3 °F 42.1 °F 29.95 in SW 2.9 mph 6 mph 51% 0.00 in 769 W/m2
10:54 60.5 °F 42.4 °F 29.95 in SW 2.3 mph 6 mph 51.2% 0.00 in 779 W/m2
10:59 60.7 °F 41.9 °F 29.95 in South 1.3 mph 7 mph 49.8% 0.00 in 787 W/m2
11:04 60.4 °F 41.5 °F 29.94 in SSW 2.8 mph 8 mph 49.7% 0.00 in 792 W/m2
11:09 60.5 °F 41.4 °F 29.94 in SW 3.2 mph 8 mph 49.3% 0.00 in 806 W/m2
11:14 60.7 °F 40.8 °F 29.94 in SSW 3 mph 7 mph 47.8% 0.00 in 808 W/m2
11:19 60.5 °F 40.9 °F 29.94 in SSW 2 mph 6 mph 48.2% 0.00 in 813 W/m2
11:24 60.9 °F 40.6 °F 29.94 in SW 5.1 mph 10 mph 47% 0.00 in 820 W/m2
11:29 60.9 °F 40.7 °F 29.94 in SW 3.2 mph 7 mph 47.3% 0.00 in 827 W/m2
11:34 61.2 °F 40.3 °F 29.93 in SSW 1.5 mph 7 mph 46% 0.00 in 834 W/m2
11:39 61.2 °F 39.6 °F 29.93 in East 2.8 mph 6 mph 44.8% 0.00 in 836 W/m2
11:44 61.7 °F 39.6 °F 29.93 in ENE 1.5 mph 6 mph 44% 0.00 in 839 W/m2
11:49 62 °F 39.1 °F 29.92 in ENE 0.3 mph 3 mph 42.8% 0.00 in 843 W/m2
11:54 62.5 °F 38.8 °F 29.92 in SE 2.4 mph 6 mph 41.5% 0.00 in 850 W/m2
11:59 62.4 °F 39.1 °F 29.92 in SE 1.8 mph 6 mph 42.1% 0.00 in 855 W/m2
12:04 62.7 °F 38.6 °F 29.91 in East 1.4 mph 6 mph 41% 0.00 in 857 W/m2
12:09 63.1 °F 39 °F 29.91 in ENE 1.1 mph 3 mph 40.9% 0.00 in 859 W/m2
12:14 63.7 °F 38.5 °F 29.91 in ESE 0.6 mph 6 mph 39.3% 0.00 in 860 W/m2
12:19 64 °F 38.4 °F 29.90 in ESE 0.1 mph 2 mph 38.7% 0.00 in 862 W/m2
12:24 64.2 °F 38.1 °F 29.90 in ESE 0.3 mph 2 mph 38% 0.00 in 866 W/m2
12:29 64 °F 38.8 °F 29.90 in ESE 1.3 mph 6 mph 39.3% 0.00 in 867 W/m2
12:34 64.5 °F 38.1 °F 29.89 in South 0.6 mph 3 mph 37.7% 0.00 in 867 W/m2
12:39 65 °F 38.1 °F 29.89 in SE 1 mph 5 mph 37% 0.00 in 867 W/m2
12:44 65.4 °F 38.1 °F 29.89 in SW 1.8 mph 6 mph 36.5% 0.00 in 869 W/m2
12:49 65.8 °F 37.5 °F 29.89 in SW 0.7 mph 4 mph 35.1% 0.00 in 869 W/m2
12:54 66.2 °F 37.4 °F 29.89 in SW 1.4 mph 5 mph 34.5% 0.00 in 871 W/m2
12:59 66 °F 36.4 °F 29.89 in South 1.1 mph 5 mph 33.4% 0.00 in 869 W/m2
13:04 65.8 °F 36.8 °F 29.88 in SW 2.6 mph 7 mph 34.2% 0.00 in 866 W/m2
13:09 66.3 °F 36 °F 29.88 in SSW 3.5 mph 7 mph 32.6% 0.00 in 866 W/m2
13:14 65.7 °F 35.3 °F 29.88 in South 1.4 mph 7 mph 32.3% 0.00 in 873 W/m2
13:19 66.2 °F 36.5 °F 29.88 in SW 0.6 mph 4 mph 33.3% 0.00 in 871 W/m2
13:24 66.9 °F 35.3 °F 29.88 in SSW 1.6 mph 7 mph 31% 0.00 in 857 W/m2
13:29 67.6 °F 34.7 °F 29.88 in ENE 0.5 mph 4 mph 29.5% 0.00 in 857 W/m2
13:34 67.9 °F 33.7 °F 29.86 in ESE 1.6 mph 6 mph 28.1% 0.00 in 853 W/m2
13:39 67.1 °F 33.2 °F 29.86 in ENE 0.5 mph 6 mph 28.3% 0.00 in 848 W/m2
13:44 67.2 °F 33.1 °F 29.86 in East 1.2 mph 7 mph 28.1% 0.00 in 880 W/m2
13:49 67.1 °F 33.2 °F 29.86 in East 1.9 mph 7 mph 28.2% 0.00 in 859 W/m2
13:54 67.3 °F 33.4 °F 29.86 in SE 2.5 mph 10 mph 28.3% 0.00 in 850 W/m2
13:59 67.4 °F 33.3 °F 29.86 in SSW 1 mph 6 mph 28.1% 0.00 in 862 W/m2
14:04 68 °F 33.8 °F 29.85 in SW 2.9 mph 7 mph 28.1% 0.00 in 887 W/m2
14:09 68.1 °F 33.8 °F 29.85 in South 5.1 mph 10 mph 28% 0.00 in 887 W/m2
14:14 67.7 °F 33.2 °F 29.85 in SSW 3.2 mph 10 mph 27.8% 0.00 in 892 W/m2
14:19 67.8 °F 33.1 °F 29.84 in SW 2.6 mph 8 mph 27.5% 0.00 in 892 W/m2
14:24 68 °F 33.6 °F 29.84 in NNW 3.8 mph 6 mph 27.8% 0.00 in 892 W/m2
14:29 68.4 °F 34.1 °F 29.84 in North 2.1 mph 6 mph 28% 0.00 in 915 W/m2
14:34 69.1 °F 34.1 °F 29.83 in SW 3.3 mph 8 mph 27.5% 0.00 in 915 W/m2
14:39 69.2 °F 34.8 °F 29.83 in SW 3 mph 11 mph 28% 0.00 in 596 W/m2
14:44 68.4 °F 34.3 °F 29.83 in NNW 1.5 mph 11 mph 28.2% 0.00 in 245 W/m2
14:49 68.3 °F 35.8 °F 29.83 in ENE 0.9 mph 3 mph 30.2% 0.00 in 252 W/m2
14:54 67.8 °F 35 °F 29.83 in SSW 1.5 mph 6 mph 29.7% 0.00 in 264 W/m2
14:59 67.6 °F 35.3 °F 29.83 in SW 2.3 mph 7 mph 30.3% 0.00 in 290 W/m2
15:04 67.5 °F 35.8 °F 29.83 in West 2.4 mph 8 mph 31% 0.00 in 241 W/m2
15:09 67.4 °F 35.8 °F 29.83 in WNW 1 mph 4 mph 31.1% 0.00 in 209 W/m2
15:14 67.2 °F 36.8 °F 29.83 in WNW 2.3 mph 8 mph 32.5% 0.00 in 165 W/m2
15:19 66.9 °F 38.4 °F 29.83 in WSW 1.1 mph 7 mph 35% 0.00 in 141 W/m2
15:24 66.7 °F 39.1 °F 29.83 in SW 1 mph 5 mph 36.1% 0.00 in 130 W/m2
15:29 66.5 °F 38.6 °F 29.83 in SW 1.8 mph 7 mph 35.7% 0.00 in 118 W/m2
15:34 66.1 °F 38.5 °F 29.82 in SW 2.3 mph 8 mph 36.1% 0.00 in 113 W/m2
15:39 65.9 °F 39 °F 29.82 in West 0.9 mph 6 mph 37.1% 0.00 in 111 W/m2
15:44 65.8 °F 39.3 °F 29.82 in WSW 0.9 mph 6 mph 37.7% 0.00 in 113 W/m2
15:49 65.7 °F 39.2 °F 29.82 in SW 1.4 mph 5 mph 37.7% 0.00 in 120 W/m2
15:54 65.5 °F 39.4 °F 29.82 in SW 2.5 mph 8 mph 38.2% 0.00 in 135 W/m2
15:59 65.4 °F 39.4 °F 29.82 in SW 3.5 mph 7 mph 38.5% 0.00 in 148 W/m2
16:04 65.2 °F 39 °F 29.82 in SSW 2.2 mph 7 mph 38.1% 0.00 in 176 W/m2
16:09 65.3 °F 39.7 °F 29.82 in SW 2 mph 7 mph 39% 0.00 in 181 W/m2
16:14 65.3 °F 39.1 °F 29.82 in SW 1.7 mph 7 mph 38% 0.00 in 167 W/m2
16:19 65.3 °F 39.1 °F 29.81 in SW 2 mph 6 mph 38% 0.00 in 167 W/m2
16:24 65.4 °F 38.8 °F 29.81 in SW 1.8 mph 6 mph 37.5% 0.00 in 165 W/m2
16:29 65.4 °F 38.6 °F 29.81 in SW 2.8 mph 6 mph 37.1% 0.00 in 153 W/m2
16:34 65.4 °F 38.6 °F 29.81 in SW 1.3 mph 5 mph 37.2% 0.00 in 148 W/m2
16:39 65.4 °F 39.2 °F 29.81 in Calm   2 mph 38.1% 0.00 in 150 W/m2
16:44 65.4 °F 39.2 °F 29.81 in SW 1.2 mph 6 mph 38.1% 0.00 in 150 W/m2
16:49 65.4 °F 38.7 °F 29.80 in SW 0.4 mph 6 mph 37.3% 0.00 in 172 W/m2
16:54 65.6 °F 39 °F 29.80 in SW 0.9 mph 3 mph 37.5% 0.00 in 178 W/m2
16:59 65.8 °F 39.1 °F 29.80 in SSW 0.5 mph 3 mph 37.5% 0.00 in 179 W/m2
17:04 65.6 °F 37.8 °F 29.80 in SSW 0.5 mph 3 mph 35.8% 0.00 in 239 W/m2
17:09 65.6 °F 38.5 °F 29.80 in SSW 0.2 mph 3 mph 36.7% 0.00 in 239 W/m2
17:14 65.7 °F 37.7 °F 29.80 in Calm     35.6% 0.00 in 144 W/m2
17:19 65.8 °F 37.9 °F 29.80 in Calm     35.8% 0.00 in 143 W/m2
17:24 65.8 °F 38 °F 29.80 in Calm     35.8% 0.00 in 141 W/m2
17:29 65.8 °F 37.7 °F 29.80 in SSW 0.3 mph 3 mph 35.4% 0.00 in 155 W/m2
17:34 65.8 °F 38.6 °F 29.80 in SSW 0.3 mph 3 mph 36.6% 0.00 in 199 W/m2
17:39 65.8 °F 37.5 °F 29.80 in SW 0.2 mph 3 mph 35.1% 0.00 in 199 W/m2
17:44 65.8 °F 37.2 °F 29.80 in SW 0.1 mph 2 mph 34.7% 0.00 in 120 W/m2
17:49 65.9 °F 37.7 °F 29.80 in Calm   2 mph 35.4% 0.00 in 77 W/m2
17:54 65.8 °F 37.3 °F 29.80 in SW 0.7 mph 3 mph 34.8% 0.00 in 63 W/m2
17:59 65.5 °F 37 °F 29.80 in SW 0.4 mph 3 mph 34.8% 0.00 in 53 W/m2
18:04 65.3 °F 37.6 °F 29.79 in SW 0.1 mph 3 mph 36% 0.00 in 48 W/m2
18:09 64.9 °F 41 °F 29.79 in Calm     41.5% 0.00 in 55 W/m2
18:14 64.3 °F 41.5 °F 29.79 in Calm     43.2% 0.00 in 56 W/m2
18:19 63.7 °F 41.9 °F 29.79 in Calm     44.9% 0.00 in 56 W/m2
18:24 63.2 °F 42.2 °F 29.79 in Calm     46.2% 0.00 in 53 W/m2
18:29 62.7 °F 42.5 °F 29.79 in Calm     47.5% 0.00 in 51 W/m2
18:34 62.4 °F 43 °F 29.79 in Calm     48.9% 0.00 in 49 W/m2
18:39 62.1 °F 43.5 °F 29.79 in Calm     50.4% 0.00 in 46 W/m2
18:44 61.8 °F 44.1 °F 29.79 in Calm     52% 0.00 in 40 W/m2
18:49 61.5 °F 44.7 °F 29.79 in Calm     53.9% 0.00 in 33 W/m2
18:54 61.2 °F 45 °F 29.79 in Calm     55.2% 0.00 in 28 W/m2
18:59 60.9 °F 43.4 °F 29.79 in Calm     52.5% 0.00 in 23 W/m2
19:04 60.6 °F 42.3 °F 29.79 in West 0.3 mph 2 mph 50.8% 0.00 in 19 W/m2
19:09 60.7 °F 40.7 °F 29.79 in SW 0.5 mph 3 mph 47.6% 0.00 in 18 W/m2
19:14 61 °F 40.6 °F 29.79 in SW 1.3 mph 6 mph 46.9% 0.00 in 12 W/m2
19:19 61.3 °F 40.4 °F 29.78 in SW 1.3 mph 7 mph 46% 0.00 in 11 W/m2
19:24 61.5 °F 40.6 °F 29.78 in SW 1 mph 7 mph 46% 0.00 in 7 W/m2
19:29 61.6 °F 40.7 °F 29.79 in WSW 1.8 mph 6 mph 46.1% 0.00 in 5 W/m2
19:34 61.4 °F 40.7 °F 29.79 in SW 1.7 mph 6 mph 46.5% 0.00 in 5 W/m2
19:39 61.3 °F 41 °F 29.79 in SW 0.7 mph 6 mph 47.2% 0.00 in 0 W/m2
19:44 61.1 °F 41 °F 29.79 in WSW 1.1 mph 6 mph 47.5% 0.00 in 0 W/m2
19:49 61 °F 41.2 °F 29.79 in WSW 1.2 mph 8 mph 48.1% 0.00 in 0 W/m2
19:54 60.8 °F 41 °F 29.79 in South 0.8 mph 8 mph 48.1% 0.00 in 0 W/m2
19:59 60.5 °F 41.9 °F 29.79 in SW 0.6 mph 3 mph 50.3% 0.00 in 0 W/m2
20:04 60.1 °F 41.8 °F 29.79 in Calm   3 mph 50.8% 0.00 in 0 W/m2
20:09 59.8 °F 41.3 °F 29.79 in SW 0.4 mph 5 mph 50.2% 0.00 in 0 W/m2
20:14 59.8 °F 41 °F 29.80 in WSW 1.9 mph 7 mph 49.8% 0.00 in 0 W/m2
20:19 59.8 °F 40.8 °F 29.80 in SSW 1.7 mph 7 mph 49.3% 0.00 in 0 W/m2
20:24 59.9 °F 40.5 °F 29.80 in SW 2.5 mph 7 mph 48.5% 0.00 in 0 W/m2
20:29 60 °F 40.3 °F 29.80 in SW 3.4 mph 8 mph 48% 0.00 in 0 W/m2
20:34 60 °F 40.3 °F 29.80 in SW 2.1 mph 6 mph 48% 0.00 in 0 W/m2
20:39 60 °F 40.3 °F 29.80 in WSW 2.8 mph 9 mph 48.2% 0.00 in 0 W/m2
20:44 59.8 °F 39.7 °F 29.80 in SW 3.4 mph 9 mph 47.2% 0.00 in 0 W/m2
20:49 59.8 °F 39.9 °F 29.80 in WSW 2.7 mph 11 mph 47.7% 0.00 in 0 W/m2
20:54 59.7 °F 40 °F 29.80 in SW 2.4 mph 11 mph 48% 0.00 in 0 W/m2
20:59 59.5 °F 40.3 °F 29.81 in SSW 2.6 mph 7 mph 48.9% 0.00 in 0 W/m2
21:04 59.3 °F 40.8 °F 29.81 in SSW 2.8 mph 8 mph 50.2% 0.00 in 0 W/m2
21:09 59.1 °F 41.2 °F 29.81 in WSW 3.7 mph 11 mph 51.4% 0.00 in 0 W/m2
21:14 58.8 °F 41.5 °F 29.81 in SW 3.4 mph 7 mph 52.6% 0.00 in 0 W/m2
21:19 58.5 °F 42.2 °F 29.81 in SSW 2.1 mph 10 mph 54.5% 0.00 in 0 W/m2
21:24 58.2 °F 42.5 °F 29.81 in NE 1.6 mph 8 mph 55.8% 0.00 in 0 W/m2
21:29 57.8 °F 42.5 °F 29.81 in SW 1.7 mph 9 mph 56.6% 0.00 in 0 W/m2
21:34 57.6 °F 42.5 °F 29.81 in SSW 2.2 mph 12 mph 57% 0.00 in 0 W/m2
21:39 57.4 °F 42.3 °F 29.81 in West 2.1 mph 7 mph 57% 0.00 in 0 W/m2
21:44 57.3 °F 42.3 °F 29.81 in WSW 1.9 mph 6 mph 57.4% 0.00 in 0 W/m2
21:49 57.1 °F 42.5 °F 29.81 in WSW 0.3 mph 5 mph 58% 0.00 in 0 W/m2
21:54 56.9 °F 42.5 °F 29.81 in WSW 4.2 mph 11 mph 58.4% 0.00 in 0 W/m2
21:59 56.8 °F 42.6 °F 29.81 in WSW 3.4 mph 9 mph 58.9% 0.00 in 0 W/m2
22:04 56.7 °F 42.5 °F 29.81 in SW 5.8 mph 11 mph 59% 0.00 in 0 W/m2
22:09 56.5 °F 42.4 °F 29.81 in SW 3.9 mph 11 mph 59% 0.00 in 0 W/m2
22:14 56.4 °F 42.6 °F 29.81 in SW 3.8 mph 11 mph 59.7% 0.00 in 0 W/m2
22:19 56.2 °F 42.5 °F 29.81 in SW 6.1 mph 15 mph 60% 0.00 in 0 W/m2
22:24 56 °F 42.4 °F 29.81 in SW 5.7 mph 12 mph 60% 0.00 in 0 W/m2
22:29 55.9 °F 42.4 °F 29.81 in SW 4 mph 10 mph 60.4% 0.00 in 0 W/m2
22:34 55.7 °F 42.4 °F 29.81 in SSW 4.8 mph 13 mph 61% 0.00 in 0 W/m2
22:39 55.5 °F 42.3 °F 29.81 in SSW 4.9 mph 13 mph 61% 0.00 in 0 W/m2
22:44 55.3 °F 42.5 °F 29.81 in WSW 3 mph 10 mph 62% 0.00 in 0 W/m2
22:49 55.1 °F 42.3 °F 29.81 in SW 6.1 mph 12 mph 62% 0.00 in 0 W/m2
22:54 54.9 °F 42.2 °F 29.81 in SW 4.2 mph 12 mph 62% 0.00 in 0 W/m2
22:59 54.8 °F 42 °F 29.81 in SW 3.3 mph 17 mph 62% 0.00 in 0 W/m2
23:04 54.6 °F 42 °F 29.81 in SSW 5.2 mph 17 mph 62.4% 0.00 in 0 W/m2
23:09 54.4 °F 41.9 °F 29.81 in SW 9.2 mph 19 mph 62.5% 0.00 in 0 W/m2
23:14 54.2 °F 41.9 °F 29.82 in WSW 8.6 mph 24 mph 62.9% 0.00 in 0 W/m2
23:19 54.1 °F 41.8 °F 29.82 in SW 7.5 mph 14 mph 63% 0.00 in 0 W/m2
23:24 53.9 °F 41.6 °F 29.82 in WSW 5.3 mph 13 mph 63% 0.00 in 0 W/m2
23:29 53.8 °F 41.5 °F 29.82 in WSW 7.5 mph 20 mph 63% 0.00 in 0 W/m2
23:34 53.6 °F 41.5 °F 29.82 in SW 3.7 mph 14 mph 63.3% 0.00 in 0 W/m2
23:39 53.5 °F 41.5 °F 29.82 in SW 5 mph 11 mph 63.5% 0.00 in 0 W/m2
23:44 53.4 °F 41.6 °F 29.82 in SSW 4.5 mph 13 mph 64% 0.00 in 0 W/m2
23:49 53.3 °F 41.5 °F 29.82 in SW 3.3 mph 13 mph 64% 0.00 in 0 W/m2
23:54 53.2 °F 41.4 °F 29.82 in SW 4.4 mph 11 mph 64% 0.00 in 0 W/m2
23:59 53.1 °F 41.3 °F 29.82 in SW 1.4 mph 11 mph 64.3% 0.00 in 0 W/m2
Lisbon, New Hampshire, USA
Compliments of Weather Underground - 4 mb